createdAt,value
2023-02-19T00:00:36.172Z,1.70
2023-02-19T00:03:23.036Z,2.15
2023-02-19T00:06:11.328Z,1.75
2023-02-19T00:08:58.652Z,2.17
2023-02-19T00:11:46.622Z,2.33
2023-02-19T00:14:33.499Z,1.85
2023-02-19T00:17:20.313Z,1.93
2023-02-19T00:20:07.607Z,3.67
2023-02-19T00:22:54.412Z,1.90
2023-02-19T00:25:41.225Z,1.95
2023-02-19T00:28:27.995Z,1.70
2023-02-19T00:31:25.395Z,1.48
2023-02-19T00:34:13.688Z,3.17
2023-02-19T00:37:00.590Z,1.75
2023-02-19T00:39:47.397Z,1.63
2023-02-19T00:42:34.235Z,1.73
2023-02-19T00:45:21.109Z,1.65
2023-02-19T00:48:07.923Z,1.43
2023-02-19T00:50:54.718Z,1.80
2023-02-19T00:53:42.140Z,2.28
2023-02-19T00:56:29.122Z,1.83
2023-02-19T00:59:16.081Z,2.22
2023-02-19T01:02:03.799Z,1.60
2023-02-19T01:04:50.813Z,2.95
2023-02-19T01:07:37.783Z,1.43
2023-02-19T01:10:24.617Z,2.40
2023-02-19T01:13:11.558Z,1.73
2023-02-19T01:16:09.652Z,1.40
2023-02-19T01:18:57.215Z,1.52
2023-02-19T01:21:44.070Z,1.92
2023-02-19T01:24:30.960Z,1.50
2023-02-19T01:27:17.769Z,1.70
2023-02-19T01:30:04.862Z,1.27
2023-02-19T01:32:51.711Z,2.20
2023-02-19T01:35:39.821Z,2.53
2023-02-19T01:38:26.666Z,2.08
2023-02-19T01:41:16.674Z,1.20
2023-02-19T01:44:08.126Z,1.67
2023-02-19T01:46:57.625Z,1.58
2023-02-19T01:49:49.791Z,2.15
2023-02-19T01:52:37.402Z,1.40
2023-02-19T01:55:24.571Z,1.45
2023-02-19T01:58:11.573Z,1.88
2023-02-19T02:00:59.708Z,1.77
2023-02-19T02:03:49.172Z,1.83
2023-02-19T02:06:57.505Z,1.90
2023-02-19T02:10:02.895Z,1.98
2023-02-19T02:12:53.475Z,1.77
2023-02-19T02:16:25.376Z,1.48
2023-02-19T02:19:35.299Z,2.40
2023-02-19T02:22:32.084Z,2.75
2023-02-19T02:25:27.713Z,1.58
2023-02-19T02:28:23.346Z,1.42
2023-02-19T02:31:33.380Z,1.27
2023-02-19T02:34:53.085Z,1.33
2023-02-19T02:37:43.593Z,1.95
2023-02-19T02:40:31.001Z,1.98
2023-02-19T02:43:17.922Z,1.25
2023-02-19T02:46:04.872Z,1.20
2023-02-19T02:48:57.439Z,1.60
2023-02-19T02:51:47.684Z,2.20
2023-02-19T02:54:54.481Z,1.30
2023-02-19T02:57:41.313Z,1.40
2023-02-19T03:00:49.621Z,1.85
2023-02-19T03:03:40.099Z,1.50
2023-02-19T03:06:30.086Z,1.40
2023-02-19T03:09:30.350Z,1.65
2023-02-19T03:12:37.669Z,1.90
2023-02-19T03:15:46.136Z,1.45
2023-02-19T03:18:53.670Z,1.88
2023-02-19T03:21:43.746Z,1.92
2023-02-19T03:24:54.013Z,1.65
2023-02-19T03:27:43.901Z,1.25
2023-02-19T03:30:37.867Z,1.50
2023-02-19T03:33:28.650Z,1.33
2023-02-19T03:36:15.869Z,1.60
2023-02-19T03:39:05.890Z,1.48
2023-02-19T03:41:55.603Z,2.08
2023-02-19T03:45:04.406Z,1.33
2023-02-19T03:48:23.506Z,1.25
2023-02-19T03:51:27.458Z,1.23
2023-02-19T03:54:23.580Z,1.20
2023-02-19T03:57:23.195Z,1.33
2023-02-19T04:00:22.032Z,1.60
2023-02-19T04:03:16.337Z,1.27
2023-02-19T04:06:10.202Z,2.47
2023-02-19T04:09:01.275Z,1.77
2023-02-19T04:11:50.773Z,2.33
2023-02-19T04:14:43.526Z,1.63
2023-02-19T04:17:54.563Z,1.40
2023-02-19T04:20:44.798Z,1.55
2023-02-19T04:23:38.366Z,2.10
2023-02-19T04:26:25.205Z,1.73
2023-02-19T04:29:12.079Z,2.10
2023-02-19T04:31:58.866Z,2.33
2023-02-19T04:34:45.748Z,1.75
2023-02-19T04:37:32.628Z,1.80
2023-02-19T04:40:19.624Z,1.88
2023-02-19T04:43:06.435Z,2.20
2023-02-19T04:45:53.256Z,2.08
2023-02-19T04:48:40.246Z,2.08
2023-02-19T04:51:27.157Z,2.00
2023-02-19T04:54:13.957Z,2.23
2023-02-19T04:57:00.838Z,2.22
2023-02-19T04:59:47.920Z,1.77
2023-02-19T05:02:34.776Z,1.90
2023-02-19T05:05:21.600Z,1.52
2023-02-19T05:08:08.606Z,1.97
2023-02-19T05:10:59.119Z,1.90
2023-02-19T05:13:45.998Z,1.55
2023-02-19T05:16:33.359Z,1.73
2023-02-19T05:19:20.213Z,1.92
2023-02-19T05:22:07.073Z,1.50
2023-02-19T05:24:53.886Z,2.03
2023-02-19T05:27:40.743Z,1.75
2023-02-19T05:30:27.620Z,1.53
2023-02-19T05:33:14.767Z,1.57
2023-02-19T05:36:09.542Z,1.45
2023-02-19T05:38:57.557Z,1.50
2023-02-19T05:41:44.442Z,1.58
2023-02-19T05:44:31.235Z,1.33
2023-02-19T05:47:18.062Z,1.20
2023-02-19T05:50:05.306Z,1.38
2023-02-19T05:52:52.156Z,1.55
2023-02-19T05:55:38.918Z,1.42
2023-02-19T05:58:26.552Z,1.52
2023-02-19T06:01:21.815Z,1.73
2023-02-19T06:04:10.784Z,1.40
2023-02-19T06:06:57.729Z,1.55
2023-02-19T06:09:44.644Z,1.17
2023-02-19T06:12:31.513Z,1.60
2023-02-19T06:15:18.418Z,1.20
2023-02-19T06:18:05.333Z,1.23
2023-02-19T06:20:52.130Z,2.57
2023-02-19T06:23:39.186Z,1.45
2023-02-19T06:26:26.623Z,1.48
2023-02-19T06:29:13.439Z,1.52
2023-02-19T06:32:01.039Z,0.85
2023-02-19T06:34:47.915Z,1.60
2023-02-19T06:37:34.778Z,1.30
2023-02-19T06:40:21.631Z,1.00
2023-02-19T06:43:08.825Z,1.38
2023-02-19T06:46:01.435Z,1.13
2023-02-19T06:48:48.390Z,2.95
2023-02-19T06:51:35.219Z,1.10
2023-02-19T06:54:22.054Z,1.02
2023-02-19T06:57:08.842Z,1.33
2023-02-19T06:59:55.661Z,1.48
2023-02-19T07:02:42.445Z,1.30
2023-02-19T07:05:29.320Z,1.17
2023-02-19T07:08:17.422Z,0.90
2023-02-19T07:11:04.499Z,1.42
2023-02-19T07:13:56.297Z,0.82
2023-02-19T07:16:44.164Z,1.35
2023-02-19T07:22:17.736Z,0.70
2023-02-19T07:25:04.687Z,0.77
2023-02-19T07:27:51.543Z,1.20
2023-02-19T07:30:38.392Z,1.90
2023-02-19T07:33:25.211Z,1.48
2023-02-19T07:36:13.249Z,0.93
2023-02-19T07:39:00.723Z,0.50
2023-02-19T07:41:47.523Z,0.70
2023-02-19T07:44:34.466Z,0.70
2023-02-19T07:47:21.248Z,0.80
2023-02-19T07:50:08.491Z,0.70
2023-02-19T07:52:55.261Z,2.38
2023-02-19T07:55:42.072Z,2.08
2023-02-19T07:58:29.957Z,1.40
2023-02-19T08:04:04.935Z,1.30
2023-02-19T08:06:53.211Z,0.70
2023-02-19T08:09:40.001Z,0.82
2023-02-19T08:12:45.357Z,0.30
2023-02-19T08:15:33.236Z,0.40
2023-02-19T08:23:56.386Z,1.13
2023-02-19T08:26:43.187Z,2.92
2023-02-19T08:29:30.035Z,0.40
2023-02-19T08:32:16.884Z,0.63
2023-02-19T08:35:03.846Z,1.10
2023-02-19T08:37:50.802Z,0.80
2023-02-19T08:40:39.093Z,1.07
2023-02-19T08:43:25.947Z,0.75
2023-02-19T08:46:13.167Z,0.70
2023-02-19T08:48:59.985Z,0.85
2023-02-19T08:51:46.889Z,0.50
2023-02-19T08:54:33.737Z,0.70
2023-02-19T08:57:20.645Z,0.73
2023-02-19T09:00:09.005Z,2.40
2023-02-19T09:02:58.600Z,0.57
2023-02-19T09:05:46.930Z,0.60
2023-02-19T09:08:33.762Z,0.70
2023-02-19T09:11:20.591Z,0.50
2023-02-19T09:14:07.842Z,1.25
2023-02-19T09:16:54.671Z,1.55
2023-02-19T09:19:41.541Z,1.58
2023-02-19T09:22:28.565Z,0.80
2023-02-19T09:25:15.397Z,0.63
2023-02-19T09:28:02.243Z,1.00
2023-02-19T09:30:49.102Z,1.10
2023-02-19T09:33:36.043Z,0.70
2023-02-19T09:36:22.868Z,0.40
2023-02-19T09:39:12.411Z,8.73
2023-02-19T09:42:04.441Z,3.90
2023-02-19T09:44:53.913Z,1.35
2023-02-19T09:47:40.817Z,1.30
2023-02-19T09:50:39.225Z,1.10
2023-02-19T09:56:16.430Z,0.45
2023-02-19T09:59:04.118Z,0.50
2023-02-19T10:02:14.562Z,0.73
2023-02-19T10:05:03.898Z,0.30
2023-02-19T10:07:54.134Z,0.30
2023-02-19T10:10:41.656Z,1.00
2023-02-19T10:13:51.749Z,1.25
2023-02-19T10:16:44.556Z,0.40
2023-02-19T10:19:32.834Z,0.40
2023-02-19T10:22:20.486Z,0.40
2023-02-19T10:25:07.615Z,0.73
2023-02-19T10:27:54.925Z,0.57
2023-02-19T10:30:41.805Z,0.47
2023-02-19T10:33:29.472Z,0.60
2023-02-19T10:36:31.606Z,0.20
2023-02-19T10:39:21.946Z,1.10
2023-02-19T10:42:23.102Z,1.45
2023-02-19T10:45:21.928Z,0.82
2023-02-19T10:48:24.809Z,0.60
2023-02-19T10:51:14.915Z,0.77
2023-02-19T10:54:20.384Z,1.58
2023-02-19T10:57:32.849Z,0.88
2023-02-19T11:00:26.707Z,0.93
2023-02-19T11:03:22.361Z,0.75
2023-02-19T11:06:11.592Z,0.60
2023-02-19T11:09:01.117Z,0.63
2023-02-19T11:11:52.345Z,0.52
2023-02-19T11:14:43.603Z,0.40
2023-02-19T11:17:30.826Z,1.40
2023-02-19T11:20:18.705Z,0.73
2023-02-19T11:23:17.551Z,1.23
2023-02-19T11:26:15.600Z,0.70
2023-02-19T11:29:22.560Z,0.80
2023-02-19T11:32:21.753Z,0.68
2023-02-19T11:35:23.739Z,0.73
2023-02-19T11:38:12.924Z,0.90
2023-02-19T11:41:18.835Z,1.13
2023-02-19T11:44:20.374Z,0.60
2023-02-19T11:47:34.804Z,1.13
2023-02-19T11:50:45.403Z,0.90
2023-02-19T11:53:37.250Z,3.22
2023-02-19T11:56:40.603Z,0.68
2023-02-19T11:59:43.742Z,1.35
2023-02-19T12:02:54.219Z,0.80
2023-02-19T12:06:01.066Z,1.85
2023-02-19T12:08:47.988Z,0.47
2023-02-19T12:11:45.242Z,0.60
2023-02-19T12:15:00.531Z,0.43
2023-02-19T12:18:22.321Z,0.40
2023-02-19T12:21:24.418Z,0.60
2023-02-19T12:24:16.893Z,0.60
2023-02-19T12:27:20.556Z,0.68
2023-02-19T12:30:46.067Z,2.30
2023-02-19T12:34:12.578Z,1.00
2023-02-19T12:37:28.249Z,1.00
2023-02-19T12:40:42.346Z,0.90
2023-02-19T12:43:30.368Z,0.90
2023-02-19T12:46:28.348Z,1.02
2023-02-19T12:49:38.984Z,1.20
2023-02-19T12:52:31.544Z,1.27
2023-02-19T12:55:29.886Z,1.00
2023-02-19T12:58:42.993Z,1.05
2023-02-19T13:01:36.188Z,0.85
2023-02-19T13:04:47.374Z,0.98
2023-02-19T13:07:46.378Z,1.65
2023-02-19T13:10:41.824Z,1.20
2023-02-19T13:13:35.166Z,1.48
2023-02-19T13:16:23.766Z,1.85
2023-02-19T13:19:11.810Z,1.45
2023-02-19T13:22:35.265Z,2.03
2023-02-19T13:25:24.555Z,1.40
2023-02-19T13:28:46.016Z,8.65
2023-02-19T13:31:50.970Z,4.55
2023-02-19T13:34:45.573Z,5.35
2023-02-19T13:37:34.983Z,6.60
2023-02-19T13:40:45.219Z,2.22
2023-02-19T13:43:39.987Z,17.80
2023-02-19T13:46:35.488Z,4.03
2023-02-19T13:49:28.660Z,2.53
2023-02-19T13:52:30.259Z,3.80
2023-02-19T13:55:49.784Z,3.22
2023-02-19T13:58:37.899Z,2.25
2023-02-19T14:01:54.255Z,4.32
2023-02-19T14:05:01.540Z,3.92
2023-02-19T14:07:54.962Z,2.40
2023-02-19T14:10:58.012Z,4.68
2023-02-19T14:13:47.836Z,4.55
2023-02-19T14:16:49.634Z,4.60
2023-02-19T14:19:42.680Z,2.47
2023-02-19T14:22:52.260Z,4.78
2023-02-19T14:25:52.701Z,9.35
2023-02-19T14:28:45.555Z,4.03
2023-02-19T14:31:36.371Z,3.58
2023-02-19T14:34:26.931Z,3.42
2023-02-19T14:37:21.227Z,5.30
2023-02-19T14:40:12.573Z,18.55
2023-02-19T14:43:01.208Z,8.90
2023-02-19T14:46:00.863Z,4.43
2023-02-19T14:48:49.777Z,6.65
2023-02-19T14:51:40.367Z,7.65
2023-02-19T14:54:46.075Z,4.43
2023-02-19T14:57:36.725Z,3.42
2023-02-19T15:00:40.228Z,7.32
2023-02-19T15:03:33.386Z,5.10
2023-02-19T15:06:20.363Z,3.40
2023-02-19T15:09:07.645Z,2.70
2023-02-19T15:11:55.529Z,3.90
2023-02-19T15:17:32.483Z,3.28
2023-02-19T15:20:22.980Z,4.75
2023-02-19T15:23:18.803Z,5.43
2023-02-19T15:26:14.149Z,5.53
2023-02-19T15:29:04.160Z,6.78
2023-02-19T15:31:55.688Z,4.38
2023-02-19T15:34:42.602Z,5.97
2023-02-19T15:37:32.413Z,2.72
2023-02-19T15:40:24.084Z,6.00
2023-02-19T15:43:24.115Z,8.60
2023-02-19T15:46:29.072Z,15.68
2023-02-19T15:49:31.013Z,10.77
2023-02-19T15:52:33.561Z,3.10
2023-02-19T15:55:40.890Z,4.57
2023-02-19T15:58:46.118Z,7.13
2023-02-19T16:01:38.646Z,5.05
2023-02-19T16:04:25.485Z,7.10
2023-02-19T16:07:27.933Z,7.70
2023-02-19T16:10:24.702Z,14.07
2023-02-19T16:13:12.404Z,16.83
2023-02-19T16:16:16.298Z,12.93
2023-02-19T16:19:03.152Z,13.45
2023-02-19T16:21:50.615Z,9.20
2023-02-19T16:24:44.698Z,15.25
2023-02-19T16:27:33.708Z,12.77
2023-02-19T16:30:28.109Z,7.40
2023-02-19T16:33:36.308Z,5.57
2023-02-19T16:36:41.874Z,4.25
2023-02-19T16:39:28.798Z,7.68
2023-02-19T16:42:15.830Z,5.50
2023-02-19T16:45:02.841Z,3.42
2023-02-19T16:47:51.290Z,4.07
2023-02-19T16:50:43.280Z,5.68
2023-02-19T16:53:30.524Z,5.65
2023-02-19T16:56:21.265Z,3.53
2023-02-19T16:59:08.337Z,3.03
2023-02-19T17:01:55.250Z,3.88
2023-02-19T17:04:42.202Z,2.67
2023-02-19T17:07:29.165Z,1.83
2023-02-19T17:10:27.203Z,3.17
2023-02-19T17:13:14.020Z,3.58
2023-02-19T17:16:00.957Z,6.22
2023-02-19T17:18:47.963Z,3.93
2023-02-19T17:21:34.932Z,3.97
2023-02-19T17:24:21.798Z,3.70
2023-02-19T17:27:12.377Z,4.97
2023-02-19T17:29:59.277Z,3.42
2023-02-19T17:32:46.153Z,4.60
2023-02-19T17:35:32.996Z,5.53
2023-02-19T17:38:19.856Z,4.40
2023-02-19T17:41:06.668Z,8.23
2023-02-19T17:43:53.673Z,4.25
2023-02-19T17:46:41.142Z,4.30
2023-02-19T17:49:28.313Z,3.25
2023-02-19T17:52:17.752Z,3.88
2023-02-19T17:55:04.927Z,4.65
2023-02-19T17:57:52.402Z,3.22
2023-02-19T18:00:39.302Z,4.07
2023-02-19T18:03:26.184Z,3.40
2023-02-19T18:06:13.432Z,4.00
2023-02-19T18:09:00.292Z,2.75
2023-02-19T18:11:48.304Z,2.27
2023-02-19T18:14:35.166Z,3.50
2023-02-19T18:17:22.614Z,3.93
2023-02-19T18:20:17.051Z,2.85
2023-02-19T18:23:04.348Z,4.00
2023-02-19T18:25:51.154Z,3.45
2023-02-19T18:28:38.556Z,3.28
2023-02-19T18:31:25.515Z,4.47
2023-02-19T18:34:18.422Z,2.72
2023-02-19T18:37:05.242Z,3.65
2023-02-19T18:39:52.726Z,12.57
2023-02-19T18:42:40.423Z,89.03
2023-02-19T18:45:27.642Z,41.38
2023-02-19T18:48:14.462Z,18.65
2023-02-19T18:51:01.309Z,29.73
2023-02-19T18:53:48.140Z,91.17
2023-02-19T18:56:46.203Z,40.58
2023-02-19T18:59:33.088Z,26.50
2023-02-19T19:02:20.046Z,23.40
2023-02-19T19:05:06.985Z,21.53
2023-02-19T19:07:59.506Z,22.90
2023-02-19T19:10:46.399Z,20.45
2023-02-19T19:13:33.338Z,24.55
2023-02-19T19:16:30.188Z,13.00
2023-02-19T19:19:17.516Z,14.43
2023-02-19T19:22:04.406Z,6.32
2023-02-19T19:24:51.258Z,4.17
2023-02-19T19:27:38.207Z,4.97
2023-02-19T19:30:25.472Z,5.13
2023-02-19T19:33:14.263Z,6.15
2023-02-19T19:36:01.211Z,7.20
2023-02-19T19:38:48.723Z,6.53
2023-02-19T19:41:35.750Z,4.32
2023-02-19T19:44:22.897Z,6.47
2023-02-19T19:47:09.823Z,8.25
2023-02-19T19:49:56.734Z,11.13
2023-02-19T19:52:43.705Z,8.87
2023-02-19T19:55:30.514Z,9.63
2023-02-19T19:58:20.955Z,9.30
2023-02-19T20:01:07.805Z,7.95
2023-02-19T20:03:54.650Z,8.95
2023-02-19T20:06:41.481Z,8.47
2023-02-19T20:09:29.257Z,4.97
2023-02-19T20:12:16.872Z,6.68
2023-02-19T20:15:03.962Z,5.70
2023-02-19T20:17:50.749Z,3.85
2023-02-19T20:20:37.989Z,2.78
2023-02-19T20:23:27.131Z,3.72
2023-02-19T20:26:25.863Z,3.58
2023-02-19T20:29:12.992Z,3.38
2023-02-19T20:32:00.562Z,4.00
2023-02-19T20:34:48.558Z,2.70
2023-02-19T20:37:38.399Z,4.57
2023-02-19T20:40:27.714Z,4.25
2023-02-19T20:43:14.568Z,4.97
2023-02-19T20:46:01.393Z,4.03
2023-02-19T20:48:49.924Z,6.10
2023-02-19T20:51:48.192Z,4.00
2023-02-19T20:54:35.936Z,4.95
2023-02-19T20:57:23.310Z,4.57
2023-02-19T21:00:11.269Z,6.03
2023-02-19T21:02:58.131Z,3.67
2023-02-19T21:05:45.046Z,5.10
2023-02-19T21:08:31.831Z,5.13
2023-02-19T21:11:18.679Z,6.97
2023-02-19T21:14:05.702Z,5.40
2023-02-19T21:16:53.676Z,6.93
2023-02-19T21:22:27.320Z,4.85
2023-02-19T21:25:14.285Z,4.30
2023-02-19T21:28:01.246Z,4.73
2023-02-19T21:30:48.817Z,3.23
2023-02-19T21:33:35.646Z,10.80
2023-02-19T21:36:22.449Z,7.85
2023-02-19T21:39:11.935Z,4.53
2023-02-19T21:41:58.770Z,3.97
2023-02-19T21:44:45.676Z,4.67
2023-02-19T21:47:32.540Z,4.00
2023-02-19T21:50:20.596Z,5.07
2023-02-19T21:53:07.421Z,4.53
2023-02-19T21:56:10.409Z,6.80
2023-02-19T21:58:57.433Z,5.85
2023-02-19T22:01:45.156Z,6.30
2023-02-19T22:04:31.982Z,4.13
2023-02-19T22:07:18.890Z,4.15
2023-02-19T22:10:07.830Z,5.50
2023-02-19T22:12:54.670Z,4.75
2023-02-19T22:15:41.529Z,3.30
2023-02-19T22:18:28.373Z,5.30
2023-02-19T22:21:15.907Z,5.07
2023-02-19T22:24:03.414Z,4.97
2023-02-19T22:26:51.405Z,4.72
2023-02-19T22:29:38.240Z,4.28
2023-02-19T22:32:25.124Z,4.05
2023-02-19T22:35:12.934Z,4.93
2023-02-19T22:38:00.726Z,7.03
2023-02-19T22:40:47.570Z,7.73
2023-02-19T22:43:34.388Z,8.53
2023-02-19T22:46:26.986Z,7.40
2023-02-19T22:49:13.756Z,8.52
2023-02-19T22:52:07.564Z,7.90
2023-02-19T22:54:57.326Z,6.57
2023-02-19T22:57:44.138Z,7.18
2023-02-19T23:00:31.083Z,6.80
2023-02-19T23:03:17.932Z,6.47
2023-02-19T23:06:05.217Z,5.73
2023-02-19T23:08:53.776Z,7.07
2023-02-19T23:11:40.638Z,6.10
2023-02-19T23:14:27.506Z,7.60
2023-02-19T23:17:14.390Z,5.80
2023-02-19T23:20:01.722Z,6.83
2023-02-19T23:22:48.555Z,6.82
2023-02-19T23:25:35.398Z,4.70
2023-02-19T23:28:22.232Z,4.20
2023-02-19T23:31:09.927Z,5.40
2023-02-19T23:33:56.818Z,7.05
2023-02-19T23:36:46.734Z,8.52
2023-02-19T23:39:33.528Z,5.53
2023-02-19T23:42:20.337Z,6.80
2023-02-19T23:45:07.547Z,6.20
2023-02-19T23:47:54.460Z,3.83
2023-02-19T23:50:41.476Z,3.70
2023-02-19T23:53:28.301Z,3.83
2023-02-19T23:56:23.708Z,4.85
2023-02-19T23:59:10.512Z,4.55
